Time;durP1;ratioP1;P1;durP2;ratioP2;P2;SDS_P1;SDS_P2;PMS_P1;PMS_P2;Temp;Humidity;BMP_temperature;BMP_pressure;BME280_temperature;BME280_humidity;BME280_pressure;Samples;Min_cycle;Max_cycle;Signal;HPM_P1;HPM_P2
2021/03/15 00:00:39;;;;;;;3.00;1.80;;;8.20;93.30;;;;;;4977493;28;20382;-73
2021/03/15 00:03:07;;;;;;;6.30;2.08;;;8.00;93.40;;;;;;4982030;28;20036;-73
2021/03/15 00:05:55;;;;;;;4.05;2.22;;;7.90;93.50;;;;;;4980104;28;20492;-74
2021/03/15 00:08:22;;;;;;;4.25;2.08;;;8.00;93.60;;;;;;4961046;28;20038;-74
2021/03/15 00:10:50;;;;;;;2.97;1.95;;;8.00;93.60;;;;;;4981896;28;20054;-74
2021/03/15 00:13:19;;;;;;;4.30;1.85;;;7.80;93.80;;;;;;4981652;28;20433;-73
2021/03/15 00:15:47;;;;;;;3.60;2.30;;;7.80;93.90;;;;;;4976270;28;20056;-74
2021/03/15 00:18:14;;;;;;;3.15;1.70;;;7.80;93.90;;;;;;4983063;28;20038;-74
2021/03/15 00:20:43;;;;;;;3.33;2.13;;;7.70;94.00;;;;;;4976515;28;20061;-73
2021/03/15 00:23:11;;;;;;;2.78;1.73;;;7.70;94.10;;;;;;4975130;28;20414;-73
2021/03/15 00:25:38;;;;;;;3.05;2.08;;;7.70;94.40;;;;;;4993005;28;20066;-73
2021/03/15 00:28:06;;;;;;;3.40;1.70;;;7.60;94.90;;;;;;4969830;28;20038;-74
2021/03/15 00:30:33;;;;;;;2.78;1.63;;;7.50;95.20;;;;;;4979811;28;20535;-73
2021/03/15 00:33:01;;;;;;;3.67;1.92;;;7.50;95.10;;;;;;4975103;28;20045;-74
2021/03/15 00:35:28;;;;;;;3.08;1.83;;;7.60;94.80;;;;;;4973346;28;20057;-73
2021/03/15 00:37:56;;;;;;;3.90;2.30;;;7.50;94.70;;;;;;4977143;28;20042;-73
2021/03/15 00:40:25;;;;;;;4.03;2.25;;;7.50;94.90;;;;;;4975999;28;20193;-74
2021/03/15 00:42:54;;;;;;;3.63;2.00;;;7.50;94.40;;;;;;4977278;28;20153;-74
2021/03/15 00:45:24;;;;;;;3.45;2.05;;;7.50;94.90;;;;;;4978910;28;20042;-73
2021/03/15 00:47:52;;;;;;;3.65;2.13;;;7.40;95.00;;;;;;4979636;28;20144;-73
2021/03/15 00:50:26;;;;;;;3.85;2.03;;;7.50;95.10;;;;;;4963455;28;20512;-73
2021/03/15 00:52:54;;;;;;;3.22;1.83;;;7.50;95.30;;;;;;4982108;28;20487;-74
2021/03/15 00:55:22;;;;;;;3.53;1.83;;;7.50;95.30;;;;;;4981757;28;20068;-74
2021/03/15 00:57:51;;;;;;;4.43;2.30;;;7.50;95.30;;;;;;4981975;28;20085;-73
2021/03/15 01:00:24;;;;;;;3.72;1.70;;;7.40;95.40;;;;;;4975119;28;20042;-74
2021/03/15 01:03:02;;;;;;;3.47;2.10;;;7.40;95.60;;;;;;4976567;28;20051;-74
2021/03/15 01:05:37;;;;;;;3.05;1.95;;;7.30;95.60;;;;;;4979624;28;20414;-74
2021/03/15 01:08:09;;;;;;;2.22;1.85;;;7.30;95.80;;;;;;4978102;28;20050;-73
2021/03/15 01:10:39;;;;;;;2.80;1.60;;;7.20;95.40;;;;;;4979905;28;20120;-73
2021/03/15 01:13:08;;;;;;;2.28;1.23;;;7.10;95.80;;;;;;4978571;28;20915;-73
2021/03/15 01:15:38;;;;;;;1.83;1.30;;;7.10;95.80;;;;;;4980749;28;20137;-73
2021/03/15 01:18:06;;;;;;;2.60;1.25;;;7.30;94.80;;;;;;4972655;28;20050;-73
2021/03/15 01:20:34;;;;;;;2.28;1.40;;;7.30;94.60;;;;;;4974591;28;20499;-74
2021/03/15 01:23:02;;;;;;;1.42;1.00;;;7.30;94.60;;;;;;4994075;28;20053;-73
2021/03/15 01:25:32;;;;;;;2.72;1.20;;;7.20;94.60;;;;;;4970460;28;20054;-73
2021/03/15 01:27:59;;;;;;;2.03;1.27;;;7.30;94.40;;;;;;4977155;28;20606;-73
2021/03/15 01:30:30;;;;;;;1.42;1.00;;;7.20;94.20;;;;;;4973081;28;20117;-74
2021/03/15 01:32:58;;;;;;;2.53;1.40;;;7.10;94.30;;;;;;4969754;28;20396;-73
2021/03/15 01:35:26;;;;;;;1.48;0.90;;;7.00;94.60;;;;;;4968602;28;20456;-74
2021/03/15 01:37:54;;;;;;;2.13;0.90;;;6.90;94.70;;;;;;4971351;28;20090;-73
2021/03/15 01:40:22;;;;;;;2.35;0.90;;;6.90;94.70;;;;;;4972094;28;20074;-74
2021/03/15 01:42:49;;;;;;;2.20;1.10;;;6.70;95.10;;;;;;4973181;28;20138;-73
2021/03/15 01:45:17;;;;;;;3.03;1.30;;;6.70;95.10;;;;;;4968317;28;20035;-74
2021/03/15 01:47:46;;;;;;;2.65;1.40;;;6.60;95.20;;;;;;4975673;28;20579;-73
2021/03/15 01:50:15;;;;;;;3.42;1.30;;;6.70;95.60;;;;;;4971963;28;20404;-74
2021/03/15 01:52:44;;;;;;;1.73;1.02;;;6.70;95.30;;;;;;4962609;28;20046;-73
2021/03/15 01:55:13;;;;;;;3.20;1.88;;;6.50;95.40;;;;;;4954617;28;20116;-73
2021/03/15 01:57:41;;;;;;;3.67;1.55;;;6.40;95.50;;;;;;4979315;28;20065;-74
2021/03/15 02:00:10;;;;;;;2.17;1.10;;;6.40;94.90;;;;;;4977453;28;20043;-73
2021/03/15 02:02:42;;;;;;;2.40;1.10;;;6.20;95.00;;;;;;4974909;28;20074;-74
2021/03/15 02:05:12;;;;;;;1.83;0.93;;;6.10;95.60;;;;;;4976047;28;20169;-73
2021/03/15 02:07:39;;;;;;;3.45;1.58;;;6.20;96.30;;;;;;4969041;28;20046;-73
2021/03/15 02:10:08;;;;;;;2.22;1.25;;;6.20;96.50;;;;;;4975287;28;20042;-73
2021/03/15 02:12:49;;;;;;;3.50;1.73;;;6.30;96.10;;;;;;4974699;28;20348;-73
2021/03/15 02:15:20;;;;;;;2.45;1.58;;;6.30;96.50;;;;;;4975118;28;20140;-74
2021/03/15 02:17:58;;;;;;;2.97;1.83;;;6.30;96.40;;;;;;4971218;28;20604;-73
2021/03/15 02:20:49;;;;;;;2.38;1.45;;;6.30;96.70;;;;;;4971359;28;20515;-73
2021/03/15 02:23:23;;;;;;;3.50;1.88;;;6.40;96.70;;;;;;4980707;28;20133;-73
2021/03/15 02:26:15;;;;;;;3.38;2.20;;;6.30;96.70;;;;;;4975718;28;20315;-73
2021/03/15 02:29:06;;;;;;;3.70;1.90;;;6.20;96.70;;;;;;4982642;28;20073;-73
2021/03/15 02:31:47;;;;;;;4.07;2.10;;;6.30;96.70;;;;;;4977298;28;20054;-73
2021/03/15 02:34:40;;;;;;;3.60;2.30;;;6.30;96.70;;;;;;4984316;28;20081;-74
2021/03/15 02:37:12;;;;;;;3.85;2.05;;;6.30;96.70;;;;;;4978558;28;20528;-74
2021/03/15 02:39:44;;;;;;;3.10;2.13;;;6.20;96.70;;;;;;4974353;28;20055;-74
2021/03/15 02:42:16;;;;;;;3.58;1.80;;;6.10;96.70;;;;;;4976295;28;20065;-74
2021/03/15 02:44:45;;;;;;;3.25;1.70;;;6.20;96.70;;;;;;4974352;28;20130;-74
2021/03/15 02:47:17;;;;;;;3.75;1.95;;;6.20;96.70;;;;;;4977873;28;20046;-73
2021/03/15 02:49:47;;;;;;;3.13;2.08;;;6.30;96.70;;;;;;4976009;28;20065;-73
2021/03/15 02:52:17;;;;;;;2.80;1.75;;;6.10;96.70;;;;;;4980931;28;20049;-74
2021/03/15 02:54:46;;;;;;;3.60;1.83;;;6.10;96.70;;;;;;4977942;28;20108;-74
2021/03/15 02:57:17;;;;;;;2.97;1.80;;;6.20;96.70;;;;;;4980073;28;20065;-74
2021/03/15 02:59:46;;;;;;;3.40;1.92;;;6.10;96.70;;;;;;4966655;28;20043;-74
2021/03/15 03:02:14;;;;;;;2.58;1.83;;;6.10;96.70;;;;;;4979432;28;20042;-74
2021/03/15 03:04:44;;;;;;;3.25;1.80;;;5.90;96.70;;;;;;4975805;28;20050;-74
2021/03/15 03:07:11;;;;;;;3.03;1.90;;;6.00;96.70;;;;;;4982357;28;20539;-74
2021/03/15 03:09:41;;;;;;;4.13;1.80;;;6.00;96.70;;;;;;4978695;28;20057;-74
2021/03/15 03:12:11;;;;;;;3.15;1.77;;;6.00;96.70;;;;;;4979269;28;20046;-74
2021/03/15 03:14:40;;;;;;;2.70;1.60;;;5.90;96.70;;;;;;4981472;28;20145;-74
2021/03/15 03:17:08;;;;;;;3.05;1.92;;;6.00;96.70;;;;;;4976929;28;20394;-74
2021/03/15 03:19:37;;;;;;;2.60;1.60;;;5.80;96.70;;;;;;4974563;28;20164;-74
2021/03/15 03:22:06;;;;;;;3.35;2.10;;;5.90;96.70;;;;;;4974316;28;20050;-74
2021/03/15 03:24:34;;;;;;;3.13;1.58;;;5.90;96.70;;;;;;4977196;28;20545;-74
2021/03/15 03:27:03;;;;;;;2.95;1.50;;;5.90;96.70;;;;;;4976944;28;20343;-73
2021/03/15 03:29:32;;;;;;;2.83;1.95;;;5.80;96.70;;;;;;4977350;28;20076;-74
2021/03/15 03:32:01;;;;;;;2.75;1.55;;;5.80;96.70;;;;;;4982146;28;20587;-74
2021/03/15 03:34:28;;;;;;;3.03;1.70;;;5.70;96.70;;;;;;4961804;28;20053;-74
2021/03/15 03:36:56;;;;;;;2.72;1.77;;;5.70;96.70;;;;;;4963494;28;20053;-73
2021/03/15 03:39:23;;;;;;;2.90;1.60;;;5.70;96.70;;;;;;4970043;28;20556;-74
2021/03/15 03:41:51;;;;;;;2.35;1.48;;;5.70;96.70;;;;;;4976250;28;20079;-74
2021/03/15 03:44:19;;;;;;;3.08;1.88;;;5.70;96.70;;;;;;4975697;28;20404;-74
2021/03/15 03:46:46;;;;;;;2.67;1.65;;;5.60;96.70;;;;;;4994591;28;20366;-73
2021/03/15 03:49:16;;;;;;;2.42;1.42;;;5.60;96.70;;;;;;4979460;28;20053;-74
2021/03/15 03:51:49;;;;;;;3.25;1.52;;;5.70;96.70;;;;;;4973412;28;20275;-74
2021/03/15 03:54:18;;;;;;;2.13;1.27;;;5.70;96.70;;;;;;4978290;28;20137;-74
2021/03/15 03:56:51;;;;;;;2.25;1.20;;;5.70;96.70;;;;;;4962366;28;20076;-74
2021/03/15 03:59:22;;;;;;;2.17;1.17;;;5.70;96.70;;;;;;4975127;28;20097;-74
2021/03/15 04:01:53;;;;;;;1.48;1.00;;;5.50;96.70;;;;;;4963607;28;20101;-74
2021/03/15 04:04:24;;;;;;;1.98;1.08;;;5.50;96.70;;;;;;4981844;28;20816;-74
2021/03/15 04:06:52;;;;;;;2.55;1.25;;;5.40;96.70;;;;;;4963358;28;20061;-74
2021/03/15 04:09:27;;;;;;;1.60;1.10;;;5.40;96.70;;;;;;4979548;28;20038;-74
2021/03/15 04:11:58;;;;;;;3.05;1.08;;;5.40;96.70;;;;;;4980351;28;20137;-74
2021/03/15 04:14:30;;;;;;;1.33;0.90;;;5.30;96.70;;;;;;4957959;28;20046;-74
2021/03/15 04:17:03;;;;;;;1.10;0.80;;;5.20;96.70;;;;;;4967919;28;20065;-75
2021/03/15 04:19:36;;;;;;;2.35;1.15;;;5.20;96.70;;;;;;4977138;28;20145;-74
2021/03/15 04:22:07;;;;;;;3.00;1.13;;;5.20;96.70;;;;;;4976163;28;20035;-75
2021/03/15 04:24:37;;;;;;;2.83;1.08;;;5.10;96.70;;;;;;4983441;28;20074;-74
2021/03/15 04:27:05;;;;;;;2.28;1.05;;;5.20;96.70;;;;;;4976551;28;20493;-74
2021/03/15 04:29:36;;;;;;;1.80;1.05;;;5.20;96.70;;;;;;4981616;28;20038;-75
2021/03/15 04:32:04;;;;;;;2.05;1.10;;;5.20;96.70;;;;;;4976817;28;20404;-75
2021/03/15 04:34:33;;;;;;;3.00;1.50;;;5.10;96.70;;;;;;4964654;28;20158;-75
2021/03/15 04:37:02;;;;;;;2.35;1.60;;;5.10;96.70;;;;;;4975166;28;20172;-75
2021/03/15 04:39:33;;;;;;;2.00;1.35;;;5.10;96.70;;;;;;4971903;28;20173;-75
2021/03/15 04:42:01;;;;;;;2.53;1.42;;;5.10;96.70;;;;;;4971673;28;20042;-74
2021/03/15 04:44:30;;;;;;;1.80;1.52;;;5.10;96.70;;;;;;4972879;28;20046;-74
2021/03/15 04:46:59;;;;;;;3.05;1.75;;;5.10;96.70;;;;;;4976203;28;20105;-75
2021/03/15 04:49:28;;;;;;;2.20;1.30;;;5.40;96.70;;;;;;4979148;28;20377;-75
2021/03/15 04:51:56;;;;;;;3.60;1.88;;;5.30;96.70;;;;;;4978092;28;20380;-75
2021/03/15 04:54:23;;;;;;;2.53;1.70;;;5.20;96.70;;;;;;4979406;28;20035;-75
2021/03/15 04:56:53;;;;;;;2.55;1.55;;;5.20;96.70;;;;;;4979283;28;20055;-75
2021/03/15 04:59:22;;;;;;;2.88;1.45;;;5.30;96.70;;;;;;4977181;28;20034;-74
2021/03/15 05:01:51;;;;;;;2.92;1.52;;;5.30;96.70;;;;;;4977295;28;20046;-75
2021/03/15 05:04:22;;;;;;;2.45;1.58;;;5.30;96.70;;;;;;4980667;28;20209;-74
2021/03/15 05:06:50;;;;;;;2.63;1.40;;;5.30;96.70;;;;;;4978988;28;20093;-75
2021/03/15 05:09:18;;;;;;;2.17;1.40;;;5.30;96.70;;;;;;4961756;28;20396;-74
2021/03/15 05:11:45;;;;;;;1.77;1.23;;;5.20;96.70;;;;;;4976265;28;20042;-74
2021/03/15 05:14:12;;;;;;;2.47;1.17;;;5.10;96.70;;;;;;4978392;28;20092;-74
2021/03/15 05:16:42;;;;;;;3.10;1.48;;;5.10;96.70;;;;;;4969467;28;20062;-75
2021/03/15 05:19:12;;;;;;;2.33;1.30;;;5.00;96.70;;;;;;4972025;28;20098;-75
2021/03/15 05:21:41;;;;;;;1.95;1.02;;;5.00;96.70;;;;;;4994628;28;20034;-75
2021/03/15 05:24:10;;;;;;;2.67;1.55;;;5.00;96.70;;;;;;4974757;28;20050;-75
2021/03/15 05:26:40;;;;;;;1.92;1.17;;;5.00;96.70;;;;;;4977665;28;20062;-75
2021/03/15 05:29:10;;;;;;;3.22;1.63;;;4.90;96.70;;;;;;4975334;28;20057;-72
2021/03/15 05:31:40;;;;;;;2.17;1.40;;;4.80;96.70;;;;;;4979910;28;20042;-72
2021/03/15 05:34:11;;;;;;;2.72;1.75;;;4.70;96.70;;;;;;4958784;28;20092;-71
2021/03/15 05:36:40;;;;;;;4.70;1.20;;;4.80;96.70;;;;;;4977728;28;20133;-72
2021/03/15 05:39:07;;;;;;;3.05;1.48;;;4.90;96.70;;;;;;4973614;28;20043;-72
2021/03/15 05:41:49;;;;;;;4.22;1.40;;;4.80;96.70;;;;;;4975002;28;20039;-72
2021/03/15 05:44:39;;;;;;;4.28;1.20;;;4.90;96.70;;;;;;4973051;28;20038;-72
2021/03/15 05:47:32;;;;;;;2.15;1.00;;;4.80;96.70;;;;;;4975708;28;20049;-72
2021/03/15 05:50:28;;;;;;;2.05;1.15;;;4.80;96.70;;;;;;4972513;28;20118;-72
2021/03/15 05:53:15;;;;;;;2.90;1.60;;;4.80;96.70;;;;;;4973201;28;20042;-71
2021/03/15 05:55:53;;;;;;;2.60;1.48;;;4.90;96.70;;;;;;4973905;28;20041;-71
2021/03/15 05:58:49;;;;;;;3.03;1.50;;;4.90;96.70;;;;;;4975995;28;20125;-71
2021/03/15 06:01:40;;;;;;;2.10;1.45;;;5.00;96.70;;;;;;4962453;28;20452;-71
2021/03/15 06:04:29;;;;;;;1.98;0.95;;;5.00;96.70;;;;;;4959417;28;20505;-71
2021/03/15 06:07:01;;;;;;;2.10;0.93;;;4.90;96.70;;;;;;4977332;28;20476;-71
2021/03/15 06:09:33;;;;;;;3.00;1.33;;;4.80;96.70;;;;;;4962861;28;20042;-71
2021/03/15 06:12:04;;;;;;;2.38;1.17;;;4.90;96.70;;;;;;4972190;28;20068;-71
2021/03/15 06:14:34;;;;;;;2.22;1.00;;;5.00;96.70;;;;;;4965225;28;20049;-71
2021/03/15 06:17:02;;;;;;;2.65;1.15;;;4.90;96.70;;;;;;4993003;28;20070;-71
2021/03/15 06:19:32;;;;;;;3.15;1.20;;;5.00;96.70;;;;;;4963137;28;20074;-71
2021/03/15 06:21:59;;;;;;;4.40;1.63;;;5.00;96.70;;;;;;4975581;28;20497;-71
2021/03/15 06:24:27;;;;;;;1.60;0.88;;;5.10;96.70;;;;;;4975227;28;20050;-71
2021/03/15 06:26:56;;;;;;;3.33;1.10;;;5.10;96.70;;;;;;4977936;28;20048;-71
2021/03/15 06:29:24;;;;;;;1.90;1.08;;;5.20;96.70;;;;;;4976775;28;20089;-71
2021/03/15 06:31:51;;;;;;;2.15;1.20;;;5.20;96.70;;;;;;4981297;28;20050;-71
2021/03/15 06:34:22;;;;;;;2.00;1.20;;;5.30;96.70;;;;;;4981234;28;20504;-71
2021/03/15 06:36:49;;;;;;;1.75;1.10;;;5.30;96.70;;;;;;4971949;28;20492;-71
2021/03/15 06:39:19;;;;;;;2.20;1.30;;;5.40;96.70;;;;;;4978615;28;20433;-71
2021/03/15 06:41:49;;;;;;;2.28;1.33;;;5.50;96.70;;;;;;4974467;28;20053;-71
2021/03/15 06:44:17;;;;;;;1.48;0.90;;;5.50;96.70;;;;;;4973961;28;20038;-71
2021/03/15 06:46:45;;;;;;;2.63;1.63;;;5.60;96.70;;;;;;4973119;28;20074;-71
2021/03/15 06:49:12;;;;;;;2.33;1.50;;;5.60;96.70;;;;;;4970500;28;20137;-71
2021/03/15 06:51:59;;;;;;;2.47;1.30;;;5.60;96.70;;;;;;4975000;28;20121;-71
2021/03/15 06:54:28;;;;;;;2.72;1.92;;;5.70;96.70;;;;;;4978335;28;20073;-71
2021/03/15 06:57:11;;;;;;;3.28;1.65;;;5.70;96.70;;;;;;4978556;28;20042;-71
2021/03/15 06:59:49;;;;;;;5.15;2.15;;;5.70;96.70;;;;;;4975667;28;20058;-71
2021/03/15 07:02:23;;;;;;;4.63;2.30;;;5.70;96.70;;;;;;4974112;28;20043;-71
2021/03/15 07:04:52;;;;;;;2.47;1.90;;;5.80;96.70;;;;;;4974269;28;20039;-71
2021/03/15 07:07:25;;;;;;;4.00;2.05;;;5.90;96.70;;;;;;4969672;28;20165;-71
2021/03/15 07:09:55;;;;;;;3.97;1.98;;;5.70;96.70;;;;;;4975548;28;20030;-71
2021/03/15 07:12:25;;;;;;;4.97;2.00;;;5.90;96.70;;;;;;4980326;28;20046;-71
2021/03/15 07:15:04;;;;;;;2.60;1.98;;;6.00;96.70;;;;;;4976406;28;20049;-72
2021/03/15 07:17:32;;;;;;;3.53;2.20;;;6.10;96.70;;;;;;4980416;28;20453;-71
2021/03/15 07:19:59;;;;;;;3.47;2.25;;;6.10;96.70;;;;;;4962193;28;20125;-71
2021/03/15 07:22:29;;;;;;;5.15;2.50;;;6.30;96.70;;;;;;4976798;28;20050;-71
2021/03/15 07:25:06;;;;;;;4.82;2.17;;;6.40;96.70;;;;;;4979953;28;20066;-71
2021/03/15 07:27:35;;;;;;;6.07;2.58;;;6.30;96.70;;;;;;4963073;28;20193;-71
2021/03/15 07:30:32;;;;;;;4.45;2.60;;;6.40;96.70;;;;;;4964176;28;20050;-72
2021/03/15 07:33:03;;;;;;;3.83;2.70;;;6.50;96.70;;;;;;4962299;28;20050;-71
2021/03/15 07:35:32;;;;;;;4.25;2.70;;;6.60;96.70;;;;;;4975824;28;20053;-71
2021/03/15 07:37:59;;;;;;;3.80;2.50;;;6.60;96.70;;;;;;4978474;28;20515;-71
2021/03/15 07:40:31;;;;;;;6.60;2.90;;;6.70;96.70;;;;;;4980918;28;20124;-71
2021/03/15 07:43:00;;;;;;;5.43;2.90;;;6.90;96.70;;;;;;4978337;28;20043;-71
2021/03/15 07:45:30;;;;;;;6.15;3.15;;;6.90;96.70;;;;;;4964014;28;20045;-71
2021/03/15 07:48:07;;;;;;;4.80;2.80;;;7.00;96.70;;;;;;4975155;28;20055;-71
2021/03/15 07:50:36;;;;;;;4.13;2.80;;;6.90;96.70;;;;;;4973931;28;20077;-71
2021/03/15 07:53:04;;;;;;;5.90;3.30;;;7.00;96.70;;;;;;4963926;28;20077;-71
2021/03/15 07:55:34;;;;;;;3.97;2.45;;;7.00;96.70;;;;;;4974154;28;20480;-71
2021/03/15 07:58:01;;;;;;;3.60;1.98;;;7.00;96.70;;;;;;4977862;28;21004;-71
2021/03/15 08:00:28;;;;;;;3.45;1.95;;;7.20;96.70;;;;;;4979700;28;20432;-71
2021/03/15 08:02:57;;;;;;;4.20;1.80;;;7.30;96.70;;;;;;4973253;28;20038;-71
2021/03/15 08:05:41;;;;;;;2.58;1.50;;;7.30;96.70;;;;;;4980556;28;20046;-71
2021/03/15 08:08:08;;;;;;;2.70;1.50;;;7.40;96.70;;;;;;4977264;28;20031;-71
2021/03/15 08:10:35;;;;;;;1.98;1.27;;;7.50;96.70;;;;;;4979141;28;20506;-71
2021/03/15 08:13:03;;;;;;;2.15;1.35;;;7.60;96.70;;;;;;4974882;28;20128;-72
2021/03/15 08:15:33;;;;;;;1.75;1.00;;;7.70;96.70;;;;;;4973943;28;20058;-71
2021/03/15 08:18:02;;;;;;;3.78;1.58;;;7.70;96.70;;;;;;4998749;28;20038;-71
2021/03/15 08:20:30;;;;;;;2.95;1.10;;;7.80;96.70;;;;;;4978556;28;20030;-71
2021/03/15 08:23:00;;;;;;;2.17;1.10;;;7.90;96.70;;;;;;4973745;28;20038;-71
2021/03/15 08:25:27;;;;;;;2.35;1.10;;;7.90;96.70;;;;;;4975206;28;20062;-72
2021/03/15 08:28:01;;;;;;;1.52;0.93;;;7.90;96.70;;;;;;4978110;28;20124;-71
2021/03/15 08:30:31;;;;;;;3.53;1.10;;;8.10;96.50;;;;;;4975026;28;20397;-72
2021/03/15 08:32:59;;;;;;;1.20;0.70;;;8.20;96.20;;;;;;4974455;28;20161;-72
2021/03/15 08:35:26;;;;;;;2.00;1.10;;;8.30;95.90;;;;;;4976202;28;20038;-72
2021/03/15 08:37:56;;;;;;;4.40;1.00;;;8.40;95.70;;;;;;4992650;28;20061;-72
2021/03/15 08:40:53;;;;;;;2.13;1.10;;;8.50;95.40;;;;;;4964573;28;20046;-72
2021/03/15 08:43:34;;;;;;;2.30;1.20;;;8.70;95.40;;;;;;4978755;28;20042;-71
2021/03/15 08:46:04;;;;;;;2.60;0.88;;;8.80;95.20;;;;;;4979938;28;20042;-72
2021/03/15 08:49:00;;;;;;;3.13;1.48;;;8.80;94.30;;;;;;4971720;28;20049;-72
2021/03/15 08:51:45;;;;;;;1.63;1.00;;;8.80;94.10;;;;;;4977975;28;20046;-71
2021/03/15 08:54:16;;;;;;;2.78;1.00;;;9.00;94.00;;;;;;4976702;28;20514;-71
2021/03/15 08:56:46;;;;;;;2.47;1.00;;;9.00;93.00;;;;;;4973266;28;20054;-73
2021/03/15 08:59:28;;;;;;;4.90;1.15;;;9.20;92.70;;;;;;4977598;28;20587;-72
2021/03/15 09:01:58;;;;;;;1.60;1.00;;;9.30;91.90;;;;;;4978666;28;20448;-72
2021/03/15 09:04:31;;;;;;;1.65;1.00;;;9.40;91.80;;;;;;4972982;28;20046;-71
2021/03/15 09:06:58;;;;;;;1.75;1.10;;;9.60;91.20;;;;;;4979989;28;20074;-71
2021/03/15 09:09:28;;;;;;;2.70;1.15;;;9.60;90.80;;;;;;4980089;28;20093;-72
2021/03/15 09:11:56;;;;;;;1.23;1.10;;;9.70;90.40;;;;;;4976059;28;20640;-72
2021/03/15 09:14:34;;;;;;;2.17;1.35;;;9.90;90.60;;;;;;4992633;28;20039;-72
2021/03/15 09:17:31;;;;;;;2.80;1.35;;;9.80;90.40;;;;;;4973771;28;20125;-72
2021/03/15 09:20:16;;;;;;;1.90;1.20;;;9.80;90.50;;;;;;4970989;28;20042;-72
2021/03/15 09:22:43;;;;;;;4.25;1.40;;;10.00;90.60;;;;;;4988725;28;20042;-75
2021/03/15 09:25:20;;;;;;;3.13;1.42;;;10.10;90.40;;;;;;4972243;28;20054;-72
2021/03/15 09:27:51;;;;;;;2.33;1.80;;;10.40;90.50;;;;;;4958486;28;20055;-72
2021/03/15 09:30:22;;;;;;;2.95;1.40;;;10.50;90.30;;;;;;4976783;28;20045;-73
2021/03/15 09:32:51;;;;;;;2.58;1.75;;;10.60;90.10;;;;;;4974556;28;20047;-73
2021/03/15 09:35:24;;;;;;;5.03;1.92;;;10.70;89.60;;;;;;4974439;28;20054;-72
2021/03/15 09:37:54;;;;;;;2.03;1.40;;;10.80;89.60;;;;;;4959621;28;20050;-73
2021/03/15 09:40:27;;;;;;;4.65;2.08;;;11.00;89.20;;;;;;4976349;28;20128;-73
2021/03/15 09:42:55;;;;;;;2.65;1.73;;;11.10;88.90;;;;;;4958357;28;20050;-72
2021/03/15 09:45:27;;;;;;;2.85;1.40;;;11.10;88.20;;;;;;4964322;28;20062;-73
2021/03/15 09:47:54;;;;;;;3.28;1.70;;;11.00;87.10;;;;;;4973020;28;20356;-72
2021/03/15 09:50:25;;;;;;;3.60;2.17;;;10.90;88.10;;;;;;4962197;28;20041;-72
2021/03/15 09:53:08;;;;;;;2.85;1.65;;;10.90;88.80;;;;;;4974986;28;20104;-76
2021/03/15 09:55:37;;;;;;;4.63;1.70;;;10.80;89.60;;;;;;4974270;28;20046;-71
2021/03/15 09:58:06;;;;;;;2.55;1.70;;;10.90;89.70;;;;;;4979492;28;20030;-72
2021/03/15 10:00:43;;;;;;;3.10;1.85;;;11.20;88.90;;;;;;4975587;28;20042;-72
2021/03/15 10:03:23;;;;;;;2.92;2.28;;;11.40;86.80;;;;;;4979634;28;20089;-75
2021/03/15 10:06:01;;;;;;;3.88;2.10;;;11.50;86.70;;;;;;4993644;28;20051;-72
2021/03/15 10:08:38;;;;;;;3.67;2.35;;;11.70;86.90;;;;;;4975746;28;20045;-72
2021/03/15 10:11:16;;;;;;;4.25;1.90;;;11.80;86.70;;;;;;4971971;28;20066;-72
2021/03/15 10:14:13;;;;;;;4.38;2.05;;;11.90;86.70;;;;;;4975825;28;20585;-71
2021/03/15 10:17:03;;;;;;;3.22;1.90;;;12.00;86.10;;;;;;4977905;28;20054;-72
2021/03/15 10:19:40;;;;;;;4.30;2.03;;;12.10;85.90;;;;;;4973639;28;20039;-72
2021/03/15 10:22:10;;;;;;;3.67;2.10;;;12.10;85.60;;;;;;4972975;28;20038;-75
2021/03/15 10:24:40;;;;;;;4.95;2.45;;;12.00;84.80;;;;;;4976045;28;20529;-75
2021/03/15 10:27:16;;;;;;;5.63;2.90;;;12.10;84.40;;;;;;4976283;28;20055;-75
2021/03/15 10:29:50;;;;;;;4.60;3.10;;;12.20;84.30;;;;;;4973185;28;20136;-73
2021/03/15 10:32:22;;;;;;;7.78;2.75;;;12.40;84.40;;;;;;4975325;28;20038;-72
2021/03/15 10:34:54;;;;;;;6.35;2.90;;;12.50;83.10;;;;;;4978403;28;20081;-73
2021/03/15 10:37:26;;;;;;;6.45;2.88;;;12.60;83.40;;;;;;4971971;28;20621;-74
2021/03/15 10:40:11;;;;;;;6.22;3.13;;;12.80;83.20;;;;;;4975255;28;20038;-73
2021/03/15 10:42:40;;;;;;;5.47;2.60;;;12.80;80.80;;;;;;4975669;28;20390;-74
2021/03/15 10:45:10;;;;;;;3.95;2.30;;;12.90;80.30;;;;;;4972774;28;20461;-73
2021/03/15 10:47:42;;;;;;;5.10;2.28;;;13.00;80.20;;;;;;4957942;28;20162;-74
2021/03/15 10:50:28;;;;;;;5.93;2.53;;;13.10;80.10;;;;;;4981745;28;20038;-74
2021/03/15 10:53:13;;;;;;;3.90;2.70;;;13.20;80.10;;;;;;4978267;28;20078;-75
2021/03/15 10:55:41;;;;;;;6.20;2.30;;;13.30;79.60;;;;;;4980082;28;20046;-72
2021/03/15 10:58:12;;;;;;;4.18;2.28;;;13.30;80.00;;;;;;4962386;28;20054;-72
2021/03/15 11:00:51;;;;;;;5.70;2.45;;;13.40;79.70;;;;;;4979270;28;20061;-72
2021/03/15 11:03:22;;;;;;;4.75;2.28;;;13.50;79.60;;;;;;4975024;28;20042;-72
2021/03/15 11:06:13;;;;;;;4.32;1.95;;;13.60;79.00;;;;;;4979373;28;20290;-75
2021/03/15 11:08:52;;;;;;;3.35;1.60;;;13.60;78.10;;;;;;4978562;28;20048;-74
2021/03/15 11:11:21;;;;;;;3.33;1.40;;;13.70;78.80;;;;;;4960931;28;20503;-75
2021/03/15 11:13:56;;;;;;;4.53;1.52;;;13.90;79.40;;;;;;4975330;28;20113;-74
2021/03/15 11:16:28;;;;;;;3.05;1.45;;;14.00;77.70;;;;;;4977805;28;20437;-73
2021/03/15 11:19:09;;;;;;;3.08;1.77;;;14.00;77.50;;;;;;4963609;28;20137;-75
2021/03/15 11:21:45;;;;;;;14.10;2.83;;;14.10;78.30;;;;;;4960235;28;20042;-72
2021/03/15 11:24:26;;;;;;;3.20;1.55;;;14.30;77.70;;;;;;4978744;28;20077;-75
2021/03/15 11:27:07;;;;;;;2.10;1.30;;;14.50;77.00;;;;;;4963826;28;20042;-71
2021/03/15 11:29:44;;;;;;;3.00;1.30;;;14.60;76.40;;;;;;4978862;28;20304;-72
2021/03/15 11:32:24;;;;;;;4.55;1.52;;;14.60;77.30;;;;;;4971524;28;20042;-72
2021/03/15 11:35:03;;;;;;;2.85;1.50;;;14.80;76.70;;;;;;4965880;28;20178;-72
2021/03/15 11:37:47;;;;;;;4.45;1.65;;;14.90;76.10;;;;;;4980556;28;20034;-71
2021/03/15 11:40:26;;;;;;;6.40;1.45;;;15.00;75.30;;;;;;4974024;28;20427;-72
2021/03/15 11:42:54;;;;;;;2.22;1.20;;;15.20;74.90;;;;;;4980143;28;20050;-72
2021/03/15 11:45:23;;;;;;;5.20;2.35;;;15.40;69.90;;;;;;4982412;28;20733;-72
2021/03/15 11:47:53;;;;;;;4.55;2.58;;;15.40;69.00;;;;;;4976691;28;20129;-72
2021/03/15 11:50:43;;;;;;;1.67;0.68;;;15.60;69.50;;;;;;4971383;28;20405;-75
2021/03/15 11:53:19;;;;;;;2.30;0.70;;;15.90;68.50;;;;;;4978727;28;20505;-75
2021/03/15 11:55:47;;;;;;;1.83;0.70;;;15.90;63.30;;;;;;4975150;28;20074;-72
2021/03/15 11:58:17;;;;;;;1.35;0.68;;;16.00;65.10;;;;;;4961373;28;20038;-72
2021/03/15 12:00:44;;;;;;;1.33;0.63;;;16.00;66.00;;;;;;4970504;28;20094;-73
2021/03/15 12:03:21;;;;;;;2.08;1.00;;;16.10;67.90;;;;;;4977824;28;20524;-72
2021/03/15 12:05:59;;;;;;;1.33;0.40;;;16.10;67.20;;;;;;4975917;28;20413;-72
2021/03/15 12:08:36;;;;;;;1.65;0.35;;;16.20;66.90;;;;;;4978086;28;20365;-73
2021/03/15 12:11:04;;;;;;;9.93;0.95;;;16.30;66.50;;;;;;4963121;28;20054;-73
2021/03/15 12:13:32;;;;;;;1.48;0.47;;;16.40;67.30;;;;;;4975801;28;20603;-73
2021/03/15 12:15:59;;;;;;;2.05;0.63;;;16.50;68.00;;;;;;4978424;28;20066;-73
2021/03/15 12:18:27;;;;;;;2.25;0.60;;;16.60;65.40;;;;;;4977627;28;20152;-73
2021/03/15 12:21:02;;;;;;;2.25;0.50;;;16.60;63.50;;;;;;4972517;28;20507;-73
2021/03/15 12:23:31;;;;;;;1.10;0.30;;;16.50;61.50;;;;;;4977017;28;20245;-73
2021/03/15 12:25:59;;;;;;;0.55;0.13;;;16.40;62.70;;;;;;4981797;28;20505;-72
2021/03/15 12:28:32;;;;;;;0.88;0.25;;;16.50;62.80;;;;;;4981413;28;20038;-72
2021/03/15 12:31:17;;;;;;;0.73;0.25;;;16.60;62.80;;;;;;4973459;28;20045;-73
2021/03/15 12:33:45;;;;;;;0.98;0.20;;;16.50;64.00;;;;;;4975280;28;20066;-72
2021/03/15 12:36:16;;;;;;;0.90;0.00;;;16.60;64.60;;;;;;4970976;28;20150;-72
2021/03/15 12:38:47;;;;;;;0.73;0.20;;;16.80;63.90;;;;;;4974976;28;20057;-73
2021/03/15 12:41:15;;;;;;;2.47;0.40;;;17.00;64.60;;;;;;4980611;28;20140;-73
2021/03/15 12:43:44;;;;;;;1.85;0.45;;;17.00;65.70;;;;;;4975248;28;20039;-73
2021/03/15 12:46:19;;;;;;;2.03;0.47;;;17.00;67.20;;;;;;4972965;28;20042;-73
2021/03/15 12:49:00;;;;;;;3.50;0.30;;;17.10;68.20;;;;;;4975136;28;20524;-73
2021/03/15 12:51:30;;;;;;;1.75;0.20;;;17.20;68.80;;;;;;4977246;28;20402;-72
2021/03/15 12:53:57;;;;;;;1.60;0.30;;;17.00;69.10;;;;;;4977649;28;20418;-73
2021/03/15 12:56:32;;;;;;;3.20;1.00;;;16.90;69.10;;;;;;4977941;28;20134;-73
2021/03/15 12:59:00;;;;;;;1.92;0.63;;;16.80;66.70;;;;;;4979392;28;20045;-73
2021/03/15 13:01:35;;;;;;;6.07;2.58;;;17.00;69.40;;;;;;4977887;28;20122;-73
2021/03/15 13:04:04;;;;;;;5.57;3.28;;;16.80;71.40;;;;;;4981201;28;20448;-73
2021/03/15 13:06:37;;;;;;;4.43;0.90;;;16.80;74.20;;;;;;4970085;28;20105;-72
2021/03/15 13:09:10;;;;;;;3.50;0.60;;;16.60;76.60;;;;;;4977828;28;20085;-73
2021/03/15 13:11:48;;;;;;;2.50;0.55;;;16.60;77.50;;;;;;4971750;28;20538;-73
2021/03/15 13:14:25;;;;;;;2.55;0.82;;;16.50;77.50;;;;;;4979920;28;20062;-73
2021/03/15 13:17:02;;;;;;;5.05;0.85;;;16.50;77.90;;;;;;4977002;28;20034;-72
2021/03/15 13:19:29;;;;;;;1.50;0.30;;;16.70;77.30;;;;;;4975217;28;20042;-72